Time;durP1;ratioP1;P1;durP2;ratioP2;P2;SDS_P1;SDS_P2;PMS_P1;PMS_P2;Temp;Humidity;BMP_temperature;BMP_pressure;BME280_temperature;BME280_humidity;BME280_pressure;Samples;Min_cycle;Max_cycle;Signal;HPM_P1;HPM_P2
2020/12/27 00:01:07;;;;;;;11.70;4.83;;;;;;;-4.12;84.02;99094.78;5027197;28;20049;-78
2020/12/27 00:03:33;;;;;;;7.87;4.23;;;;;;;-4.18;83.48;99079.22;5030833;28;20052;-78
2020/12/27 00:05:59;;;;;;;9.43;4.50;;;;;;;-4.16;83.69;99085.28;5026072;28;20053;-78
2020/12/27 00:08:25;;;;;;;8.83;4.77;;;;;;;-4.13;84.31;99087.75;5025517;28;20076;-79
2020/12/27 00:10:52;;;;;;;9.30;4.10;;;;;;;-4.23;84.42;99078.63;5029665;28;20280;-78
2020/12/27 00:13:18;;;;;;;8.87;4.57;;;;;;;-4.27;84.84;99077.97;5030989;28;20049;-78
2020/12/27 00:15:45;;;;;;;9.27;5.47;;;;;;;-4.22;84.96;99088.31;5027382;28;20056;-78
2020/12/27 00:18:13;;;;;;;8.50;4.53;;;;;;;-4.18;84.71;99088.03;5033232;28;20041;-78
2020/12/27 00:20:39;;;;;;;10.70;4.20;;;;;;;-4.36;84.66;99076.72;5028752;28;20057;-78
2020/12/27 00:23:05;;;;;;;8.87;4.63;;;;;;;-4.39;84.72;99055.69;5029604;28;20382;-78
2020/12/27 00:25:32;;;;;;;8.53;4.30;;;;;;;-4.37;84.85;99045.81;5030926;28;20046;-78
2020/12/27 00:28:00;;;;;;;7.70;4.47;;;;;;;-4.43;84.89;99048.84;5030760;28;20050;-79
2020/12/27 00:30:26;;;;;;;8.20;4.50;;;;;;;-4.38;85.12;99038.81;5031067;28;20073;-79
2020/12/27 00:32:53;;;;;;;7.13;4.80;;;;;;;-4.29;84.77;99038.25;5034005;28;20096;-78
2020/12/27 00:35:20;;;;;;;9.00;3.93;;;;;;;-4.35;84.86;99021.84;5032669;28;20046;-78
2020/12/27 00:37:46;;;;;;;10.27;4.63;;;;;;;-4.50;84.74;98979.38;5031463;28;20045;-78
2020/12/27 00:40:13;;;;;;;7.37;4.23;;;;;;;-4.37;84.37;98982.13;5026872;28;20045;-78
2020/12/27 00:42:39;;;;;;;9.70;4.20;;;;;;;-4.32;84.29;98993.31;5032003;28;20060;-79
2020/12/27 00:45:06;;;;;;;7.53;4.13;;;;;;;-4.37;84.50;98978.63;5031717;28;20552;-78
2020/12/27 00:47:32;;;;;;;9.63;4.30;;;;;;;-4.46;84.34;98943.78;5030720;28;20398;-78
2020/12/27 00:50:00;;;;;;;7.07;3.97;;;;;;;-4.40;84.90;98968.19;5025374;28;20050;-78
2020/12/27 00:52:27;;;;;;;10.57;4.37;;;;;;;-4.35;84.87;98963.44;5036095;28;20054;-78
2020/12/27 00:54:57;;;;;;;6.53;4.20;;;;;;;-4.23;84.83;98962.72;5033538;28;20077;-78
2020/12/27 00:57:24;;;;;;;9.20;4.70;;;;;;;-4.40;85.04;98926.59;5033657;28;20103;-78
2020/12/27 00:59:52;;;;;;;6.00;3.87;;;;;;;-4.40;84.40;98941.66;5033847;28;20054;-79
2020/12/27 01:02:18;;;;;;;7.03;4.13;;;;;;;-4.33;84.16;98949.16;5033227;28;20045;-79
2020/12/27 01:04:44;;;;;;;8.30;3.67;;;;;;;-4.31;84.03;98949.88;5032621;28;20497;-79
2020/12/27 01:07:10;;;;;;;7.63;3.87;;;;;;;-4.31;84.77;98938.44;5033333;28;20070;-79
2020/12/27 01:09:38;;;;;;;8.13;4.07;;;;;;;-4.48;83.95;98924.41;5032214;28;20049;-79
2020/12/27 01:12:05;;;;;;;7.70;4.07;;;;;;;-4.35;83.35;98918.31;5033485;28;20056;-79
2020/12/27 01:14:43;;;;;;;6.13;3.40;;;;;;;-4.29;83.02;98923.25;5035672;28;20056;-79
2020/12/27 01:17:09;;;;;;;7.10;3.93;;;;;;;-4.26;83.49;98933.66;5041521;28;20103;-79
2020/12/27 01:19:35;;;;;;;9.80;3.63;;;;;;;-4.23;83.19;98944.13;5033997;28;20517;-79
2020/12/27 01:22:02;;;;;;;8.63;3.63;;;;;;;-4.42;82.44;98906.41;5034485;28;20080;-79
2020/12/27 01:24:28;;;;;;;8.60;4.40;;;;;;;-4.30;83.40;98925.06;5034424;28;20053;-79
2020/12/27 01:26:56;;;;;;;8.07;3.30;;;;;;;-4.34;83.79;98906.78;5034215;28;20076;-79
2020/12/27 01:29:22;;;;;;;5.33;3.63;;;;;;;-4.35;84.08;98911.25;5034360;28;20107;-79
2020/12/27 01:31:48;;;;;;;9.60;3.83;;;;;;;-4.57;84.69;98876.41;5034875;28;20050;-78
2020/12/27 01:34:15;;;;;;;7.57;3.87;;;;;;;-4.49;83.58;98895.31;5025273;28;20403;-78
2020/12/27 01:36:41;;;;;;;7.53;4.40;;;;;;;-4.42;84.61;98893.16;5018110;28;20050;-79
2020/12/27 01:39:09;;;;;;;8.33;3.90;;;;;;;-4.42;84.22;98885.19;5034929;28;20053;-80
2020/12/27 01:41:37;;;;;;;10.87;4.77;;;;;;;-4.38;83.96;98879.59;5036324;28;20119;-77
2020/12/27 01:44:06;;;;;;;7.37;3.57;;;;;;;-4.47;84.58;98873.06;5031246;28;20056;-77
2020/12/27 01:46:33;;;;;;;7.43;3.83;;;;;;;-4.44;84.06;98866.72;5019726;28;20058;-77
2020/12/27 01:49:00;;;;;;;6.63;4.20;;;;;;;-4.38;84.07;98863.66;5021108;28;20056;-77
2020/12/27 01:51:26;;;;;;;6.63;3.47;;;;;;;-4.46;83.07;98837.63;5023075;28;20053;-77
2020/12/27 01:53:53;;;;;;;8.50;3.63;;;;;;;-4.35;84.57;98844.88;5023570;28;20478;-78
2020/12/27 01:56:26;;;;;;;6.23;4.07;;;;;;;-4.39;84.11;98835.41;5025177;28;20050;-78
2020/12/27 01:58:57;;;;;;;7.73;3.63;;;;;;;-4.46;83.86;98815.53;5020691;28;20516;-77
2020/12/27 02:01:25;;;;;;;6.93;3.57;;;;;;;-4.42;83.30;98808.22;5030015;28;20041;-77
2020/12/27 02:03:53;;;;;;;5.67;3.47;;;;;;;-4.32;83.37;98796.91;5032220;28;20053;-77
2020/12/27 02:06:20;;;;;;;9.93;3.80;;;;;;;-4.13;82.77;98803.66;5031404;28;20353;-78
2020/12/27 02:08:49;;;;;;;5.87;3.60;;;;;;;-4.17;82.80;98778.25;5026330;28;20049;-77
2020/12/27 02:11:16;;;;;;;7.03;3.30;;;;;;;-4.22;82.82;98767.94;5022351;28;20391;-77
2020/12/27 02:13:50;;;;;;;3.40;2.90;;;;;;;-4.13;82.48;98771.81;5024960;28;20077;-77
2020/12/27 02:16:20;;;;;;;6.00;3.70;;;;;;;-4.08;82.50;98756.41;5029942;28;20042;-78
2020/12/27 02:18:50;;;;;;;8.83;3.03;;;;;;;-4.12;82.12;98739.84;5029564;28;20053;-77
2020/12/27 02:21:18;;;;;;;4.93;3.22;;;;;;;-3.95;81.61;98754.63;5033984;28;20041;-77
2020/12/27 02:23:45;;;;;;;6.50;3.70;;;;;;;-3.95;81.83;98736.03;5029616;28;20108;-77
2020/12/27 02:26:13;;;;;;;12.60;4.17;;;;;;;-3.94;82.28;98718.31;5023296;28;20053;-77
2020/12/27 02:28:39;;;;;;;5.40;3.67;;;;;;;-3.99;82.29;98697.41;5028615;28;20112;-77
2020/12/27 02:31:06;;;;;;;7.83;3.77;;;;;;;-3.84;82.12;98705.25;5026489;28;20069;-78
2020/12/27 02:33:32;;;;;;;5.70;3.73;;;;;;;-3.92;82.51;98685.38;5027915;28;20429;-77
2020/12/27 02:35:59;;;;;;;11.23;4.13;;;;;;;-3.77;82.28;98701.22;5031350;28;20053;-78
2020/12/27 02:38:25;;;;;;;10.53;4.50;;;;;;;-3.79;81.91;98679.25;5029317;28;20052;-77
2020/12/27 02:40:52;;;;;;;6.53;3.47;;;;;;;-4.05;82.93;98644.72;5024471;28;20045;-77
2020/12/27 02:43:20;;;;;;;5.67;3.73;;;;;;;-3.91;83.62;98667.66;5031341;28;20521;-77
2020/12/27 02:45:47;;;;;;;10.13;3.63;;;;;;;-3.77;83.52;98670.19;5024541;28;20493;-77
2020/12/27 02:48:15;;;;;;;14.47;4.77;;;;;;;-3.75;83.71;98659.47;5031005;28;20072;-77
2020/12/27 02:50:41;;;;;;;6.10;3.57;;;;;;;-3.67;83.86;98654.47;5030270;28;20056;-77
2020/12/27 02:53:08;;;;;;;6.23;4.00;;;;;;;-3.68;83.92;98646.63;5022349;28;20053;-77
2020/12/27 02:55:34;;;;;;;5.33;3.90;;;;;;;-3.65;83.13;98633.94;5021361;28;20053;-77
2020/12/27 02:58:00;;;;;;;8.20;4.63;;;;;;;-3.48;83.93;98639.88;5027812;28;20111;-77
2020/12/27 03:00:30;;;;;;;3.83;3.30;;;;;;;-3.40;82.58;98624.25;5024383;28;20049;-77
2020/12/27 03:02:56;;;;;;;8.90;4.35;;;;;;;-3.37;82.45;98602.78;5026455;28;20118;-77
2020/12/27 03:05:23;;;;;;;6.53;3.77;;;;;;;-3.31;83.03;98604.09;5027683;28;20121;-77
2020/12/27 03:07:49;;;;;;;5.07;3.30;;;;;;;-3.37;82.65;98586.81;5026601;28;20049;-77
2020/12/27 03:10:15;;;;;;;9.73;3.70;;;;;;;-3.28;81.63;98586.16;5019495;28;20054;-77
2020/12/27 03:12:43;;;;;;;7.13;3.53;;;;;;;-3.28;81.02;98567.53;5031840;28;20072;-77
2020/12/27 03:15:10;;;;;;;7.33;3.27;;;;;;;-3.28;80.42;98564.88;5030885;28;20049;-77
2020/12/27 03:17:37;;;;;;;11.70;3.70;;;;;;;-3.15;81.12;98577.28;5028840;28;20045;-77
2020/12/27 03:20:04;;;;;;;6.40;3.67;;;;;;;-3.14;80.44;98578.97;5031120;28;20049;-77
2020/12/27 03:22:30;;;;;;;4.47;3.53;;;;;;;-3.13;80.19;98578.00;5029721;28;20045;-77
2020/12/27 03:24:56;;;;;;;7.37;3.43;;;;;;;-3.12;79.89;98577.88;5031070;28;20413;-77
2020/12/27 03:27:23;;;;;;;5.33;3.27;;;;;;;-3.06;79.00;98592.53;5035491;28;20044;-78
2020/12/27 03:29:49;;;;;;;9.83;3.80;;;;;;;-3.15;79.80;98577.28;5047371;28;20096;-77
2020/12/27 03:32:15;;;;;;;2.70;2.43;;;;;;;-3.20;79.60;98577.59;5031078;28;20395;-77
2020/12/27 03:34:42;;;;;;;7.63;4.03;;;;;;;-3.17;79.58;98576.53;5030370;28;20068;-77
2020/12/27 03:37:09;;;;;;;5.67;3.50;;;;;;;-3.27;79.78;98565.72;5030189;28;21390;-77
2020/12/27 03:39:35;;;;;;;7.83;3.70;;;;;;;-3.31;79.83;98548.28;5030156;28;20049;-77
2020/12/27 03:42:01;;;;;;;4.83;3.10;;;;;;;-3.26;79.71;98554.97;5028845;28;20053;-77
2020/12/27 03:44:27;;;;;;;3.73;3.23;;;;;;;-3.21;79.30;98544.88;5029361;28;20045;-78
2020/12/27 03:46:54;;;;;;;6.17;3.40;;;;;;;-3.17;79.42;98531.34;5031279;28;20461;-77
2020/12/27 03:49:20;;;;;;;5.70;3.37;;;;;;;-3.21;79.08;98538.69;5030876;28;20045;-77
2020/12/27 03:51:47;;;;;;;6.13;3.30;;;;;;;-3.27;78.95;98518.72;5030439;28;20520;-77
2020/12/27 03:54:13;;;;;;;4.00;3.00;;;;;;;-3.19;79.14;98531.47;5018635;28;20042;-77
2020/12/27 03:56:39;;;;;;;4.90;3.47;;;;;;;-3.25;78.60;98506.16;5021657;28;20053;-77
2020/12/27 03:59:06;;;;;;;4.93;3.37;;;;;;;-3.22;78.46;98510.41;5029373;28;20057;-77
2020/12/27 04:01:33;;;;;;;6.17;2.67;;;;;;;-3.34;77.89;98490.91;5028198;28;20498;-77
2020/12/27 04:04:00;;;;;;;5.07;2.73;;;;;;;-3.26;78.48;98482.34;5036557;28;20048;-77
2020/12/27 04:06:26;;;;;;;5.73;3.43;;;;;;;-3.25;78.13;98478.72;5028548;28;20053;-77
2020/12/27 04:08:54;;;;;;;4.47;3.23;;;;;;;-3.24;78.97;98472.44;5030031;28;20049;-77
2020/12/27 04:11:20;;;;;;;5.90;2.77;;;;;;;-3.40;79.00;98464.78;5034706;28;20056;-77
2020/12/27 04:13:46;;;;;;;7.27;3.13;;;;;;;-3.35;79.31;98470.59;5031622;28;20053;-77
2020/12/27 04:16:13;;;;;;;5.67;3.50;;;;;;;-3.43;79.59;98454.38;5033431;28;20049;-77
2020/12/27 04:18:39;;;;;;;5.37;3.73;;;;;;;-3.35;79.66;98456.47;5034727;28;20046;-77
2020/12/27 04:21:05;;;;;;;5.77;4.00;;;;;;;-3.43;79.43;98446.41;5031000;28;20061;-77
2020/12/27 04:23:32;;;;;;;7.30;3.70;;;;;;;-3.43;79.58;98443.75;5023216;28;20045;-78
2020/12/27 04:25:59;;;;;;;5.83;3.43;;;;;;;-3.45;79.16;98438.50;5029183;28;20049;-77
2020/12/27 04:28:26;;;;;;;7.33;3.47;;;;;;;-3.44;80.02;98442.03;5031333;28;20052;-77
2020/12/27 04:30:52;;;;;;;7.50;4.23;;;;;;;-3.56;80.46;98423.38;5032324;28;20440;-77
2020/12/27 04:33:19;;;;;;;11.27;4.10;;;;;;;-3.54;79.75;98411.78;5033330;28;20056;-77
2020/12/27 04:35:45;;;;;;;6.20;3.63;;;;;;;-3.58;79.57;98400.56;5026671;28;20049;-77
2020/12/27 04:38:11;;;;;;;6.00;3.67;;;;;;;-3.50;79.88;98413.28;5032671;28;20052;-77
2020/12/27 04:40:42;;;;;;;4.77;3.43;;;;;;;-3.51;79.89;98406.25;5033312;28;20485;-77
2020/12/27 04:43:10;;;;;;;6.73;3.63;;;;;;;-3.61;79.60;98395.47;5034357;28;20445;-77
2020/12/27 04:45:36;;;;;;;6.37;4.07;;;;;;;-3.54;79.95;98401.16;5034196;28;20041;-77
2020/12/27 04:48:03;;;;;;;6.20;3.33;;;;;;;-3.56;79.29;98399.47;5035177;28;20465;-77
2020/12/27 04:50:31;;;;;;;4.60;3.20;;;;;;;-3.57;79.54;98383.63;5035089;28;20053;-77
2020/12/27 04:52:57;;;;;;;6.80;4.10;;;;;;;-3.77;79.37;98347.94;5033226;28;20049;-77
2020/12/27 04:55:24;;;;;;;5.73;3.80;;;;;;;-3.59;79.20;98375.78;5034853;28;20045;-77
2020/12/27 04:57:51;;;;;;;4.97;3.57;;;;;;;-3.58;79.28;98376.66;5034760;28;20045;-77
2020/12/27 05:00:22;;;;;;;7.70;3.00;;;;;;;-3.62;79.78;98370.69;5034949;28;20053;-77
2020/12/27 05:02:48;;;;;;;6.17;3.20;;;;;;;-3.64;79.65;98355.84;5035425;28;20471;-77
2020/12/27 05:05:14;;;;;;;10.53;3.57;;;;;;;-3.75;79.76;98357.50;5033700;28;20064;-77
2020/12/27 05:07:42;;;;;;;14.53;4.23;;;;;;;-3.67;79.88;98359.59;5035058;28;20046;-77
2020/12/27 05:10:09;;;;;;;3.87;2.93;;;;;;;-3.78;79.91;98346.25;5034939;28;20057;-78
2020/12/27 05:12:36;;;;;;;7.37;4.40;;;;;;;-3.62;79.66;98352.09;5034197;28;20049;-77
2020/12/27 05:15:04;;;;;;;5.47;3.53;;;;;;;-3.71;78.33;98330.72;5034539;28;20056;-77
2020/12/27 05:17:31;;;;;;;5.30;3.60;;;;;;;-3.59;79.07;98343.06;5022926;28;20046;-77
2020/12/27 05:20:06;;;;;;;6.93;3.23;;;;;;;-3.69;78.92;98329.59;5034777;28;20054;-77
2020/12/27 05:22:34;;;;;;;5.37;3.40;;;;;;;-3.57;78.52;98331.38;5034081;28;20490;-77
2020/12/27 05:25:02;;;;;;;6.33;3.90;;;;;;;-3.53;79.66;98320.50;5034082;28;20052;-77
2020/12/27 05:27:31;;;;;;;9.17;4.80;;;;;;;-3.53;78.52;98304.56;5025236;28;20041;-77
2020/12/27 05:30:01;;;;;;;8.18;4.03;;;;;;;-3.50;78.42;98306.97;5022374;28;20052;-77
2020/12/27 05:32:29;;;;;;;;;;;;;;;-3.53;78.47;98301.91;5034650;28;20048;-77
2020/12/27 05:34:57;;;;;;;6.23;3.57;;;;;;;-3.53;78.16;98296.59;5034544;28;19925;-77
2020/12/27 05:37:24;;;;;;;7.57;3.43;;;;;;;-3.62;78.16;98284.84;5033115;28;20044;-79
2020/12/27 05:39:51;;;;;;;5.43;3.17;;;;;;;-3.63;77.16;98267.19;5033471;28;20045;-77
2020/12/27 05:42:24;;;;;;;5.23;3.50;;;;;;;-3.65;77.60;98242.56;5022400;28;20053;-77
2020/12/27 05:44:51;;;;;;;6.13;3.60;;;;;;;-3.55;78.07;98259.50;5025137;28;20053;-77
2020/12/27 05:47:17;;;;;;;3.67;2.83;;;;;;;-3.56;77.61;98258.63;5034760;28;20373;-77
2020/12/27 05:49:45;;;;;;;6.83;3.30;;;;;;;-3.65;77.52;98230.13;5034258;28;20050;-77
2020/12/27 05:52:16;;;;;;;6.67;3.80;;;;;;;-3.54;77.60;98245.22;5033743;28;20057;-77
2020/12/27 05:54:46;;;;;;;6.33;3.77;;;;;;;-3.67;77.65;98216.13;5018038;28;20053;-77
2020/12/27 05:57:14;;;;;;;5.67;3.40;;;;;;;-3.46;77.37;98226.91;5034347;28;20057;-77
2020/12/27 05:59:43;;;;;;;6.57;4.13;;;;;;;-3.53;78.08;98222.19;5034383;28;20055;-77
2020/12/27 06:02:39;;;;;;;9.07;3.77;;;;;;;-3.51;77.64;98210.44;5033994;28;20041;-77
2020/12/27 06:05:13;;;;;;;7.00;2.97;;;;;;;-3.48;77.70;98201.41;5033064;28;20049;-77
2020/12/27 06:07:42;;;;;;;5.30;3.57;;;;;;;-3.46;77.51;98187.03;5033586;28;20498;-77
2020/12/27 06:10:11;;;;;;;7.33;4.47;;;;;;;-3.45;77.47;98188.72;5033922;28;20053;-77
2020/12/27 06:13:11;;;;;;;7.33;4.07;;;;;;;-3.39;77.56;98184.72;5032971;28;20045;-77
2020/12/27 06:15:46;;;;;;;6.63;3.73;;;;;;;-3.42;76.92;98169.91;5033330;28;20056;-78
2020/12/27 06:18:13;;;;;;;8.10;3.93;;;;;;;-3.45;77.11;98156.81;5028996;28;20494;-77
2020/12/27 06:20:41;;;;;;;7.83;4.50;;;;;;;-3.38;76.91;98152.72;5025114;28;20061;-77
2020/12/27 06:23:09;;;;;;;6.33;4.13;;;;;;;-3.36;77.03;98133.16;5052004;28;20413;-78
2020/12/27 06:25:36;;;;;;;7.43;4.33;;;;;;;-3.37;76.03;98132.31;5025704;28;20050;-78
2020/12/27 06:28:04;;;;;;;7.93;4.37;;;;;;;-3.34;76.67;98136.53;5033508;28;20104;-77
2020/12/27 06:30:32;;;;;;;6.87;4.40;;;;;;;-3.29;76.21;98139.69;5032863;28;20048;-78
2020/12/27 06:33:05;;;;;;;6.13;4.03;;;;;;;-3.32;77.10;98139.94;5033328;28;20049;-77
2020/12/27 06:35:34;;;;;;;5.83;3.80;;;;;;;-3.42;76.62;98119.41;5030246;28;20069;-77
2020/12/27 06:38:01;;;;;;;11.77;3.97;;;;;;;-3.38;76.84;98130.63;5033121;28;20042;-77
2020/12/27 06:40:28;;;;;;;6.40;3.93;;;;;;;-3.31;76.72;98129.16;5022600;28;20049;-77
2020/12/27 06:43:19;;;;;;;6.83;3.87;;;;;;;-3.32;76.94;98129.28;5033054;28;20076;-77
2020/12/27 06:45:46;;;;;;;5.93;3.60;;;;;;;-3.39;77.40;98119.16;5027233;28;20053;-77
2020/12/27 06:48:30;;;;;;;11.53;5.10;;;;;;;-3.42;77.32;98107.91;5033098;28;20045;-78
2020/12/27 06:50:57;;;;;;;8.43;4.27;;;;;;;-3.33;77.74;98114.31;5033243;28;20147;-77
2020/12/27 06:53:40;;;;;;;7.77;4.30;;;;;;;-3.30;77.03;98112.22;5032023;28;20045;-77
2020/12/27 06:56:10;;;;;;;8.93;4.67;;;;;;;-3.29;77.90;98118.41;5032897;28;20045;-77
2020/12/27 06:58:37;;;;;;;25.93;4.37;;;;;;;-3.41;78.06;98107.78;5033290;28;20053;-78
2020/12/27 07:01:17;;;;;;;7.33;4.47;;;;;;;-3.36;77.74;98106.56;5032939;28;20053;-78
2020/12/27 07:03:43;;;;;;;;;;;;;;;-3.33;78.08;98095.69;5033676;28;20108;-77
2020/12/27 07:06:24;;;;;;;6.70;4.10;;;;;;;-3.33;77.29;98075.28;5032406;28;20198;-77
2020/12/27 07:08:55;;;;;;;7.40;3.83;;;;;;;-3.36;77.60;98069.38;5032269;28;20104;-78
2020/12/27 07:11:25;;;;;;;7.00;4.13;;;;;;;-3.46;78.15;98054.16;5032690;28;20490;-77
2020/12/27 07:13:57;;;;;;;6.60;4.40;;;;;;;-3.34;76.79;98062.09;5022036;28;20490;-77
2020/12/27 07:16:42;;;;;;;7.17;4.20;;;;;;;-3.30;76.84;98058.25;5032312;28;20068;-78
2020/12/27 07:19:11;;;;;;;5.00;3.60;;;;;;;-3.32;76.69;98046.91;5028925;28;20481;-78
2020/12/27 07:21:37;;;;;;;6.80;4.13;;;;;;;-3.30;76.56;98042.28;5032629;28;20079;-78
2020/12/27 07:24:24;;;;;;;7.67;4.60;;;;;;;-3.24;76.89;98036.47;5032660;28;20045;-78
2020/12/27 07:27:02;;;;;;;10.63;4.50;;;;;;;-3.24;76.89;98028.50;5014133;28;20506;-78
2020/12/27 07:29:28;;;;;;;7.30;3.73;;;;;;;-3.29;76.36;98020.91;5018854;28;20059;-77
2020/12/27 07:31:55;;;;;;;8.70;4.03;;;;;;;-3.26;76.44;98025.97;5032672;28;20049;-77
2020/12/27 07:34:24;;;;;;;6.00;4.80;;;;;;;-3.24;76.89;98016.06;5031719;28;20049;-78
2020/12/27 07:36:58;;;;;;;6.82;4.35;;;;;;;-3.24;76.91;98023.19;5015856;28;20096;-78
2020/12/27 07:39:49;;;;;;;9.57;4.30;;;;;;;-3.20;76.59;98014.81;5032578;28;20049;-77
2020/12/27 07:42:21;;;;;;;5.77;3.90;;;;;;;-3.18;76.91;98017.34;5031833;28;20049;-77
2020/12/27 07:44:47;;;;;;;8.43;4.57;;;;;;;-3.22;76.79;98002.66;5031135;28;20060;-77
2020/12/27 07:47:13;;;;;;;5.47;3.87;;;;;;;-3.16;76.26;98009.25;5032019;28;20065;-77
2020/12/27 07:49:40;;;;;;;6.30;4.53;;;;;;;-3.26;76.46;97986.09;5032591;28;20127;-78
2020/12/27 07:52:07;;;;;;;11.80;4.73;;;;;;;-3.09;76.35;97991.81;5032454;28;20486;-78
2020/12/27 07:54:33;;;;;;;9.87;4.63;;;;;;;-3.05;76.60;97982.63;5032341;28;20351;-77
2020/12/27 07:56:59;;;;;;;7.63;4.47;;;;;;;-3.03;76.46;97978.03;5032235;28;20050;-78
2020/12/27 07:59:26;;;;;;;7.40;4.13;;;;;;;-2.98;75.60;97959.88;5032422;28;20045;-78
2020/12/27 08:01:53;;;;;;;5.73;4.43;;;;;;;-2.92;76.49;97977.13;5030213;28;20049;-81
2020/12/27 08:04:20;;;;;;;6.23;4.63;;;;;;;-2.97;75.44;97947.41;5020794;28;20045;-79
2020/12/27 08:06:46;;;;;;;8.33;4.70;;;;;;;-2.82;75.67;97953.25;5027842;28;20045;-79
2020/12/27 08:09:14;;;;;;;6.00;4.20;;;;;;;-2.81;75.79;97934.50;5029209;28;20095;-79
2020/12/27 08:11:42;;;;;;;10.00;4.10;;;;;;;-2.92;75.40;97919.47;5030238;28;20338;-79
2020/12/27 08:14:09;;;;;;;6.33;4.30;;;;;;;-2.79;74.75;97939.69;5027896;28;20052;-79
2020/12/27 08:16:38;;;;;;;10.20;4.10;;;;;;;-2.93;75.82;97906.31;5029568;28;20060;-79
2020/12/27 08:19:07;;;;;;;6.55;3.58;;;;;;;-2.85;75.01;97919.78;5028623;28;20401;-78
2020/12/27 08:21:36;;;;;;;12.40;4.80;;;;;;;-2.67;75.21;97939.47;5027304;28;20494;-78
2020/12/27 08:24:09;;;;;;;5.95;4.10;;;;;;;-2.67;74.95;97920.84;5022005;28;20057;-79
2020/12/27 08:26:38;;;;;;;5.30;3.90;;;;;;;-2.77;75.77;97879.22;5024007;28;20436;-78
2020/12/27 08:29:08;;;;;;;5.03;3.97;;;;;;;-2.61;74.74;97903.53;5021031;28;20042;-79
2020/12/27 08:31:44;;;;;;;7.20;4.23;;;;;;;-2.51;74.30;97900.91;5025776;28;20072;-78
2020/12/27 08:34:12;;;;;;;7.60;4.60;;;;;;;-2.45;73.98;97907.50;5026165;28;20046;-78
2020/12/27 08:36:39;;;;;;;7.23;4.03;;;;;;;-2.44;74.07;97907.38;5020001;28;20048;-78
2020/12/27 08:39:12;;;;;;;9.00;4.47;;;;;;;-2.41;74.45;97906.28;5029018;28;20049;-79
2020/12/27 08:41:41;;;;;;;7.80;4.37;;;;;;;-2.38;74.37;97903.34;5026823;28;20048;-79
2020/12/27 08:44:25;;;;;;;12.83;4.40;;;;;;;-2.44;74.62;97886.06;5022349;28;20054;-79
2020/12/27 08:46:54;;;;;;;10.97;5.00;;;;;;;-2.29;74.28;97902.53;5026672;28;20077;-79
2020/12/27 08:49:29;;;;;;;7.60;4.70;;;;;;;-2.23;73.34;97898.50;5029656;28;20080;-79
2020/12/27 08:52:05;;;;;;;9.67;4.93;;;;;;;-2.27;74.09;97884.63;5022438;28;20045;-79
2020/12/27 08:54:33;;;;;;;7.13;5.00;;;;;;;-2.16;74.94;97889.00;5018600;28;20053;-79
2020/12/27 08:57:02;;;;;;;8.03;4.60;;;;;;;-2.27;74.93;97852.66;5017909;28;20053;-79
2020/12/27 08:59:28;;;;;;;6.83;4.33;;;;;;;-2.19;74.08;97850.16;5028491;28;20041;-79
2020/12/27 09:02:14;;;;;;;4.50;4.10;;;;;;;-2.14;73.69;97863.91;5026409;28;20126;-78
2020/12/27 09:05:03;;;;;;;9.37;4.67;;;;;;;-2.06;73.59;97857.03;5034831;28;20531;-79
2020/12/27 09:07:44;;;;;;;8.20;4.60;;;;;;;-2.09;73.96;97844.88;5023877;28;20103;-79
2020/12/27 09:10:18;;;;;;;6.33;3.80;;;;;;;-2.16;73.76;97831.25;5026235;28;20103;-79
2020/12/27 09:12:57;;;;;;;4.73;3.40;;;;;;;-2.22;73.19;97817.66;5034625;28;20041;-79
2020/12/27 09:15:25;;;;;;;9.65;3.95;;;;;;;-2.10;73.26;97823.69;5035233;28;20052;-80
2020/12/27 09:18:00;;;;;;;6.10;3.83;;;;;;;-1.94;73.41;97826.66;5035065;28;20076;-80
2020/12/27 09:20:28;;;;;;;7.07;4.13;;;;;;;-1.90;73.11;97817.41;5035393;28;20045;-80
2020/12/27 09:22:54;;;;;;;5.43;4.03;;;;;;;-1.89;72.60;97810.25;5036121;28;20456;-79
2020/12/27 09:25:22;;;;;;;7.57;3.90;;;;;;;-2.04;72.29;97778.69;5034419;28;20092;-80
2020/12/27 09:27:49;;;;;;;7.13;3.90;;;;;;;-1.75;72.79;97804.50;5036142;28;20111;-79
2020/12/27 09:30:16;;;;;;;8.87;5.50;;;;;;;-1.81;73.16;97765.97;5034666;28;20065;-79
2020/12/27 09:32:43;;;;;;;8.33;5.93;;;;;;;-1.68;72.80;97781.66;5032829;28;20119;-80
2020/12/27 09:35:33;;;;;;;6.77;4.73;;;;;;;-1.56;71.01;97781.50;5033727;28;20064;-80
2020/12/27 09:38:00;;;;;;;;;;;;;;;-1.48;71.29;97774.47;5035322;28;20041;-80
2020/12/27 09:40:26;;;;;;;5.83;3.40;;;;;;;-1.54;71.29;97768.88;5035332;28;19948;-80
2020/12/27 09:43:03;;;;;;;7.20;4.70;;;;;;;-1.50;71.09;97757.78;5033229;28;20041;-80
2020/12/27 09:45:30;;;;;;;5.43;3.63;;;;;;;-1.54;70.92;97737.72;5018103;28;20100;-80
2020/12/27 09:47:58;;;;;;;7.17;3.87;;;;;;;-1.44;71.83;97740.38;5019188;28;20084;-79
2020/12/27 09:50:35;;;;;;;7.27;4.27;;;;;;;-1.35;71.49;97730.69;5032995;28;20045;-80
2020/12/27 09:53:03;;;;;;;6.10;3.83;;;;;;;-1.39;71.92;97708.78;5032943;28;20045;-80
2020/12/27 09:55:30;;;;;;;8.13;3.50;;;;;;;-1.27;70.68;97712.13;5032918;28;20072;-80
2020/12/27 09:57:56;;;;;;;7.13;3.67;;;;;;;-1.22;70.08;97703.69;5033686;28;20056;-80
2020/12/27 10:00:23;;;;;;;7.03;4.10;;;;;;;-1.16;70.04;97689.75;5028150;28;20053;-80
2020/12/27 10:02:50;;;;;;;7.03;3.83;;;;;;;-1.19;69.81;97676.72;5033032;28;20447;-80
2020/12/27 10:05:17;;;;;;;6.87;3.90;;;;;;;-1.14;70.34;97674.47;5021912;28;20049;-79
2020/12/27 10:07:44;;;;;;;6.87;3.83;;;;;;;-1.03;69.79;97662.75;5024994;28;20530;-79
2020/12/27 10:10:13;;;;;;;6.13;3.57;;;;;;;-1.12;69.41;97649.31;5031913;28;20041;-79
2020/12/27 10:12:39;;;;;;;7.20;4.70;;;;;;;-1.00;69.82;97638.44;5031849;28;20056;-79
2020/12/27 10:15:07;;;;;;;6.57;4.37;;;;;;;-0.93;69.84;97628.88;5034907;28;20077;-79
2020/12/27 10:17:35;;;;;;;4.33;3.30;;;;;;;-0.97;68.93;97633.63;5031612;28;20103;-79
2020/12/27 10:20:01;;;;;;;10.17;4.50;;;;;;;-0.94;68.40;97601.31;5032778;28;20057;-80
2020/12/27 10:22:28;;;;;;;7.23;4.37;;;;;;;-0.82;69.28;97609.97;5032768;28;20052;-79
2020/12/27 10:24:54;;;;;;;5.83;3.80;;;;;;;-0.82;68.56;97598.44;5031797;28;20415;-80
2020/12/27 10:27:22;;;;;;;6.30;3.67;;;;;;;-0.75;67.63;97583.53;5029373;28;20053;-79
2020/12/27 10:29:48;;;;;;;12.37;2.87;;;;;;;-0.80;66.90;97565.31;5030380;28;20053;-80
2020/12/27 10:32:15;;;;;;;8.07;3.87;;;;;;;-0.66;68.71;97553.25;5031844;28;20049;-80
2020/12/27 10:34:41;;;;;;;7.13;3.87;;;;;;;-0.66;69.00;97542.56;5029771;28;20049;-79
2020/12/27 10:37:07;;;;;;;5.93;3.37;;;;;;;-0.61;68.49;97534.91;5031548;28;20072;-79
2020/12/27 10:39:34;;;;;;;6.53;3.73;;;;;;;-0.64;68.49;97524.56;5029336;28;20038;-79
2020/12/27 10:42:00;;;;;;;6.73;4.60;;;;;;;-0.58;68.75;97515.09;5024183;28;20045;-79
2020/12/27 10:44:28;;;;;;;5.10;4.13;;;;;;;-0.64;68.54;97481.03;5028919;28;20045;-79
2020/12/27 10:46:54;;;;;;;6.63;3.63;;;;;;;-0.67;68.80;97484.84;5030477;28;20046;-79
2020/12/27 10:49:22;;;;;;;5.63;3.63;;;;;;;-0.54;69.26;97501.28;5028410;28;20045;-79
2020/12/27 10:51:49;;;;;;;5.97;3.30;;;;;;;-0.52;68.77;97489.63;5031122;28;20109;-79
2020/12/27 10:54:15;;;;;;;5.03;3.37;;;;;;;-0.54;68.90;97484.44;5020506;28;20076;-79
2020/12/27 10:56:43;;;;;;;6.00;3.97;;;;;;;-0.42;69.43;97477.00;5017653;28;20046;-80
2020/12/27 10:59:10;;;;;;;5.67;3.00;;;;;;;-0.40;69.31;97467.00;5030519;28;20037;-81
2020/12/27 11:01:42;;;;;;;7.83;3.83;;;;;;;-0.28;68.05;97465.75;5029330;28;20049;-78
2020/12/27 11:04:08;;;;;;;6.83;4.60;;;;;;;-0.39;68.45;97453.50;5023995;28;20057;-77
2020/12/27 11:06:36;;;;;;;6.57;3.57;;;;;;;-0.44;69.24;97442.44;5029296;28;20061;-78
2020/12/27 11:09:02;;;;;;;5.07;3.63;;;;;;;-0.33;69.89;97429.81;5032835;28;20107;-78
2020/12/27 11:11:28;;;;;;;9.80;4.87;;;;;;;-0.39;68.37;97410.78;5029610;28;20461;-78
2020/12/27 11:13:54;;;;;;;9.03;3.73;;;;;;;-0.32;69.71;97421.66;5031425;28;20135;-78
2020/12/27 11:16:21;;;;;;;6.93;3.87;;;;;;;-0.25;69.96;97428.03;5029073;28;20050;-78
2020/12/27 11:18:48;;;;;;;6.80;3.67;;;;;;;-0.11;69.58;97412.41;5030748;28;20496;-78
2020/12/27 11:21:14;;;;;;;10.50;4.20;;;;;;;-0.13;68.92;97385.03;5030996;28;20045;-79
2020/12/27 11:23:40;;;;;;;6.20;3.70;;;;;;;0.01;69.41;97362.19;5029829;28;20061;-78
2020/12/27 11:26:06;;;;;;;6.50;3.73;;;;;;;-0.11;69.81;97356.31;5030915;28;20049;-78
2020/12/27 11:28:33;;;;;;;6.37;3.47;;;;;;;-0.26;69.97;97337.41;5025084;28;20049;-78
2020/12/27 11:30:59;;;;;;;8.53;4.63;;;;;;;0.01;69.14;97352.34;5031172;28;20045;-78
2020/12/27 11:33:25;;;;;;;8.20;3.57;;;;;;;0.11;68.77;97336.19;5031292;28;20092;-78
2020/12/27 11:35:53;;;;;;;5.07;2.87;;;;;;;-0.01;68.95;97330.31;5034930;28;20044;-78
2020/12/27 11:38:19;;;;;;;7.67;3.50;;;;;;;-0.19;70.09;97312.53;5032867;28;20045;-79
2020/12/27 11:40:45;;;;;;;8.47;3.07;;;;;;;0.01;69.89;97311.44;5032804;28;20065;-78